Dryfork, West Virginia
Current Conditions -  °F | °C
As of 1:15 AM on Monday 26 Jan 2015 (Local Time) from KW99 Reporting Station
Unknown Precip Unknown Precip  
Wind Chill: 37°   Ceiling: 1400
Heat Index: 37°   Visibility: 2.5mi
Dew Point: 37°   Wind: 0mph
Humidity: 100%   Direction: NA
Pressure: 29.77"   Gusts: NA
Location:  38.97°N, 79.5°W
Report Text: KW99 260615Z AUTO 00000KT 2 1/2SM UP OVC014 03/03 A2977 RMK AO2 P0001 T00250025
Loading
Personal Weather Stations






























Interactive Weather Map New forecast layout! Learn more

10-Day Weather Forecast

Advertisements
Track Severe Weather on mobile